Girdwood, Alaska
Current Conditions -  °F | °C
As of 3:53 PM on Tuesday 21 Oct 2014 (Local Time) from PATO Reporting Station
Clear Clear  
Wind Chill: 32°   Ceiling: Unl
Heat Index: 36°   Visibility: 10mi
Dew Point: 35°   Wind: 5mph
Humidity: 97%   Direction: 290°WNW
Pressure: 29.25"   Gusts: NA
Location:  60.95°N, 149.16°W
Report Text: PATO 212353Z AUTO 29004KT 10SM CLR 02/02 A2925 RMK AO2 SLP906 60000 T00220017 10044 20017 56017 TSNO
Loading
Personal Weather Stations






























Interactive Weather Map
Tropical Storm Tracking
New forecast layout! Learn more

10-Day Weather Forecast

Advertisements
Track Severe Weather on mobile